Time;durP1;ratioP1;P1;durP2;ratioP2;P2;SDS_P1;SDS_P2;PMS_P1;PMS_P2;Temp;Humidity;BMP_temperature;BMP_pressure;BME280_temperature;BME280_humidity;BME280_pressure;Samples;Min_cycle;Max_cycle;Signal;HPM_P1;HPM_P2
2023/08/25 00:01:24;;;;;;;68.07;41.92;;;19.80;99.90;;;;;;5083473;27;20051;-87
2023/08/25 00:03:55;;;;;;;66.93;42.03;;;19.50;99.90;;;;;;5088070;27;20043;-85
2023/08/25 00:06:23;;;;;;;72.03;42.78;;;19.70;99.90;;;;;;5067792;27;20406;-86
2023/08/25 00:08:55;;;;;;;73.47;43.33;;;19.70;99.90;;;;;;5087953;27;20079;-89
2023/08/25 00:11:21;;;;;;;76.60;44.42;;;19.70;99.90;;;;;;5097390;27;20130;-85
2023/08/25 00:13:47;;;;;;;76.53;44.10;;;19.70;99.90;;;;;;5085064;27;20047;-84
2023/08/25 00:16:14;;;;;;;80.95;45.55;;;19.70;99.90;;;;;;5054492;27;20092;-86
2023/08/25 00:18:40;;;;;;;82.60;47.58;;;19.70;99.90;;;;;;5085582;27;20046;-88
2023/08/25 00:21:26;;;;;;;83.97;48.30;;;19.70;99.90;;;;;;5089546;27;20050;-85
2023/08/25 00:23:52;;;;;;;84.55;50.83;;;19.70;99.90;;;;;;5083948;27;20044;-88
2023/08/25 00:26:21;;;;;;;93.38;51.90;;;19.70;99.90;;;;;;5083108;27;20532;-85
2023/08/25 00:28:46;;;;;;;95.03;52.60;;;19.70;99.90;;;;;;5088609;27;20043;-85
2023/08/25 00:31:12;;;;;;;98.03;52.38;;;19.70;99.90;;;;;;5056339;27;20048;-85
2023/08/25 00:33:52;;;;;;;91.65;51.90;;;19.60;99.90;;;;;;5081497;28;20051;-87
2023/08/25 00:36:18;;;;;;;91.00;51.95;;;19.70;99.90;;;;;;5096728;27;20126;-87
2023/08/25 00:38:44;;;;;;;102.15;54.83;;;19.70;99.90;;;;;;5089665;27;20143;-88
2023/08/25 00:41:09;;;;;;;112.07;57.58;;;19.70;99.90;;;;;;5074889;28;20140;-89
2023/08/25 00:43:38;;;;;;;106.45;57.92;;;19.70;99.90;;;;;;5086491;27;20047;-87
2023/08/25 00:46:04;;;;;;;114.05;59.95;;;19.70;99.90;;;;;;5136123;27;20046;-87
2023/08/25 00:48:30;;;;;;;116.15;64.07;;;19.70;99.90;;;;;;5057804;27;20562;-87
2023/08/25 00:50:56;;;;;;;118.28;64.85;;;19.70;99.90;;;;;;5074780;27;20127;-86
2023/08/25 00:53:23;;;;;;;125.20;67.65;;;19.70;99.90;;;;;;5072671;27;20131;-86
2023/08/25 00:55:50;;;;;;;122.05;67.78;;;19.70;99.90;;;;;;5070693;27;20050;-88
2023/08/25 00:58:16;;;;;;;125.95;67.30;;;19.70;99.90;;;;;;5076822;27;20073;-86
2023/08/25 01:00:44;;;;;;;131.60;68.43;;;19.70;99.90;;;;;;5107026;28;20134;-85
2023/08/25 01:03:11;;;;;;;127.13;68.25;;;19.70;99.90;;;;;;5087288;28;20135;-86
2023/08/25 01:05:39;;;;;;;121.32;65.05;;;19.60;99.90;;;;;;5090026;27;20074;-89
2023/08/25 01:08:05;;;;;;;130.55;66.70;;;19.20;99.90;;;;;;5085871;27;20147;-86
2023/08/25 01:11:03;;;;;;;127.50;66.90;;;19.60;99.90;;;;;;5109368;28;20095;-85
2023/08/25 01:13:48;;;;;;;122.47;65.95;;;19.60;99.90;;;;;;5102361;27;20067;-85
2023/08/25 01:16:17;;;;;;;127.80;67.57;;;19.60;99.90;;;;;;5085012;28;20042;-85
2023/08/25 01:18:44;;;;;;;120.93;65.00;;;19.60;99.90;;;;;;5088229;28;20088;-86
2023/08/25 01:21:11;;;;;;;119.90;64.50;;;19.60;99.90;;;;;;5090088;28;20047;-87
2023/08/25 01:24:19;;;;;;;125.63;64.82;;;19.50;99.90;;;;;;5069379;28;20521;-89
2023/08/25 01:26:45;;;;;;;130.07;66.80;;;19.60;99.90;;;;;;4992478;28;20773;-88
2023/08/25 01:29:11;;;;;;;130.48;68.25;;;19.50;99.90;;;;;;5105486;28;20069;-86
2023/08/25 01:31:37;;;;;;;126.10;66.85;;;19.50;99.90;;;;;;5075505;28;20529;-87
2023/08/25 01:34:03;;;;;;;118.85;64.93;;;19.50;99.90;;;;;;5102451;28;20130;-86
2023/08/25 01:36:39;;;;;;;127.90;66.32;;;19.50;99.90;;;;;;5069858;28;20043;-86
2023/08/25 01:39:10;;;;;;;124.68;64.43;;;19.50;99.90;;;;;;5091067;28;20043;-86
2023/08/25 01:41:47;;;;;;;108.35;60.75;;;19.50;99.90;;;;;;5100632;28;20043;-86
2023/08/25 01:44:16;;;;;;;103.95;60.13;;;19.50;99.90;;;;;;5101259;27;20111;-86
2023/08/25 01:46:50;;;;;;;95.65;57.80;;;19.50;99.90;;;;;;5088981;28;20491;-86
2023/08/25 01:49:19;;;;;;;98.75;55.42;;;19.50;99.90;;;;;;5091820;28;20134;-86
2023/08/25 01:51:51;;;;;;;98.20;55.97;;;19.50;99.90;;;;;;5091536;28;20051;-87
2023/08/25 01:54:17;;;;;;;86.78;55.38;;;19.50;99.90;;;;;;5074273;28;20074;-86
2023/08/25 01:56:42;;;;;;;83.95;51.42;;;19.50;99.90;;;;;;5097425;27;20082;-85
2023/08/25 01:59:08;;;;;;;83.00;51.63;;;19.50;99.90;;;;;;5086453;28;20043;-86
2023/08/25 02:01:34;;;;;;;81.20;50.97;;;19.50;99.90;;;;;;5086671;28;20102;-85
2023/08/25 02:04:01;;;;;;;87.35;54.38;;;19.50;99.90;;;;;;5102622;28;20047;-85
2023/08/25 02:06:28;;;;;;;72.30;49.80;;;19.50;99.90;;;;;;5103446;28;20082;-87
2023/08/25 02:08:54;;;;;;;76.70;47.83;;;19.50;99.90;;;;;;5075404;28;20691;-86
2023/08/25 02:11:19;;;;;;;68.63;46.83;;;19.50;99.90;;;;;;5090249;28;20130;-85
2023/08/25 02:13:47;;;;;;;67.90;45.40;;;19.50;99.90;;;;;;5085340;28;20523;-85
2023/08/25 02:16:13;;;;;;;72.45;46.85;;;19.50;99.90;;;;;;5088766;27;20040;-85
2023/08/25 02:18:38;;;;;;;67.72;43.65;;;19.50;99.90;;;;;;5074350;27;20042;-86
2023/08/25 02:21:05;;;;;;;65.68;45.10;;;19.50;99.90;;;;;;5088406;27;20051;-86
2023/08/25 02:23:31;;;;;;;67.68;45.10;;;19.50;99.90;;;;;;5090277;27;20046;-86
2023/08/25 02:25:57;;;;;;;65.65;43.72;;;19.50;99.90;;;;;;5073653;27;20043;-89
2023/08/25 02:28:22;;;;;;;71.50;44.78;;;19.50;99.90;;;;;;5087634;27;20058;-85
2023/08/25 02:30:50;;;;;;;61.33;41.00;;;19.50;99.90;;;;;;5088879;27;20055;-86
2023/08/25 02:33:16;;;;;;;62.25;40.67;;;19.50;99.90;;;;;;5076925;27;20100;-87
2023/08/25 02:35:43;;;;;;;64.03;44.38;;;18.60;99.90;;;;;;5086679;27;20055;-86
2023/08/25 02:38:10;;;;;;;63.75;43.20;;;19.50;99.90;;;;;;5073568;27;20239;-85
2023/08/25 02:40:39;;;;;;;64.07;42.95;;;19.50;99.90;;;;;;5087729;27;20032;-87
2023/08/25 02:43:06;;;;;;;62.85;42.25;;;19.40;99.90;;;;;;5091750;27;20090;-86
2023/08/25 02:45:33;;;;;;;65.50;44.15;;;19.40;99.90;;;;;;5093768;27;20039;-87
2023/08/25 02:47:59;;;;;;;60.30;40.95;;;19.40;99.90;;;;;;5077464;27;20162;-85
2023/08/25 02:50:25;;;;;;;65.03;44.00;;;19.40;99.90;;;;;;5089702;27;20130;-86
2023/08/25 02:52:51;;;;;;;63.80;41.78;;;19.40;99.90;;;;;;5120582;27;20047;-85
2023/08/25 02:55:20;;;;;;;61.78;42.40;;;19.40;99.90;;;;;;5092030;27;20074;-85
2023/08/25 02:57:52;;;;;;;58.20;41.78;;;19.80;99.90;;;;;;5073367;27;20169;-85
2023/08/25 03:00:24;;;;;;;59.58;42.45;;;19.40;99.90;;;;;;5087732;27;20442;-86
2023/08/25 03:02:50;;;;;;;58.63;41.85;;;19.40;99.90;;;;;;5104854;27;20050;-87
2023/08/25 03:05:16;;;;;;;59.92;42.97;;;19.40;99.90;;;;;;5090666;27;20047;-85
2023/08/25 03:07:42;;;;;;;64.30;42.20;;;19.30;99.90;;;;;;5085667;27;20052;-86
2023/08/25 03:10:08;;;;;;;67.30;42.15;;;19.30;99.90;;;;;;5075926;27;20057;-87
2023/08/25 03:12:34;;;;;;;58.53;40.97;;;19.30;99.90;;;;;;5106517;27;20071;-91
2023/08/25 03:15:00;;;;;;;67.95;44.22;;;19.30;99.90;;;;;;5091307;27;20531;-86
2023/08/25 03:17:26;;;;;;;65.85;44.97;;;19.00;99.90;;;;;;5092968;27;20044;-85
2023/08/25 03:19:53;;;;;;;62.55;42.55;;;19.30;99.90;;;;;;5087597;27;20173;-86
2023/08/25 03:22:19;;;;;;;60.13;43.35;;;19.30;99.90;;;;;;5075067;27;20048;-89
2023/08/25 03:24:45;;;;;;;60.90;42.60;;;19.30;99.90;;;;;;5090421;27;20044;-86
2023/08/25 03:27:11;;;;;;;61.42;43.25;;;19.30;99.90;;;;;;5072524;27;20053;-86
2023/08/25 03:29:38;;;;;;;57.35;42.65;;;19.30;99.90;;;;;;5086011;27;20043;-85
2023/08/25 03:32:07;;;;;;;59.70;40.83;;;19.30;99.90;;;;;;5090094;27;20046;-87
2023/08/25 03:34:33;;;;;;;50.33;37.88;;;19.00;99.90;;;;;;5078323;27;20048;-85
2023/08/25 03:36:58;;;;;;;58.08;40.08;;;19.20;99.90;;;;;;5086232;27;20073;-87
2023/08/25 03:39:26;;;;;;;54.08;39.10;;;19.20;99.90;;;;;;5088839;27;20087;-86
2023/08/25 03:42:01;;;;;;;51.42;38.97;;;19.20;99.90;;;;;;5106161;27;20577;-87
2023/08/25 03:44:26;;;;;;;50.33;38.20;;;19.10;99.90;;;;;;5072862;27;20075;-87
2023/08/25 03:46:52;;;;;;;48.47;37.15;;;19.10;99.90;;;;;;5108032;27;20067;-86
2023/08/25 03:49:18;;;;;;;52.63;38.72;;;19.10;99.90;;;;;;5103284;27;20043;-88
2023/08/25 03:51:44;;;;;;;43.28;36.38;;;19.00;99.90;;;;;;5103309;27;20058;-87
2023/08/25 03:54:18;;;;;;;49.00;36.20;;;19.00;99.90;;;;;;5087115;27;20053;-86
2023/08/25 03:56:43;;;;;;;42.85;35.17;;;18.90;99.90;;;;;;5092282;27;20130;-86
2023/08/25 03:59:09;;;;;;;36.63;29.88;;;18.90;99.90;;;;;;5072698;27;20134;-91
2023/08/25 04:01:36;;;;;;;36.70;28.35;;;18.80;99.90;;;;;;5074347;27;20039;-85
2023/08/25 04:04:03;;;;;;;35.33;29.20;;;18.80;99.90;;;;;;5087816;27;20050;-85
2023/08/25 04:06:29;;;;;;;36.40;29.85;;;18.80;99.90;;;;;;5077269;27;20381;-87
2023/08/25 04:08:55;;;;;;;35.40;30.33;;;18.70;99.90;;;;;;5087774;27;20475;-87
2023/08/25 04:11:21;;;;;;;35.65;27.85;;;18.70;99.90;;;;;;5073703;27;20138;-85
2023/08/25 04:13:47;;;;;;;35.10;28.90;;;18.70;99.90;;;;;;5093526;27;20054;-87
2023/08/25 04:16:13;;;;;;;37.65;28.77;;;18.70;99.90;;;;;;5086882;27;20046;-85
2023/08/25 04:18:40;;;;;;;32.88;27.88;;;18.70;99.90;;;;;;5094103;27;20043;-85
2023/08/25 04:21:05;;;;;;;33.78;28.08;;;18.70;99.90;;;;;;5073479;27;20050;-86
2023/08/25 04:23:31;;;;;;;31.20;26.70;;;18.60;99.90;;;;;;5104224;27;20126;-88
2023/08/25 04:25:57;;;;;;;28.20;24.98;;;18.70;99.90;;;;;;5071453;27;20047;-86
2023/08/25 04:28:25;;;;;;;35.97;25.55;;;18.60;99.90;;;;;;5101791;27;20386;-85
2023/08/25 04:30:54;;;;;;;31.38;25.40;;;18.70;99.90;;;;;;5091129;27;20043;-85
2023/08/25 04:33:20;;;;;;;29.52;23.92;;;18.60;99.90;;;;;;5079181;27;20051;-86
2023/08/25 04:35:46;;;;;;;30.20;23.90;;;18.70;99.90;;;;;;5083854;27;20081;-86
2023/08/25 04:38:13;;;;;;;28.45;22.30;;;18.70;99.90;;;;;;5092010;27;20043;-86
2023/08/25 04:40:39;;;;;;;22.98;18.70;;;18.70;99.90;;;;;;5087685;27;20046;-84
2023/08/25 04:43:05;;;;;;;21.65;17.67;;;18.60;99.90;;;;;;5084514;27;20051;-85
2023/08/25 04:45:31;;;;;;;20.02;15.52;;;18.70;99.90;;;;;;5091378;27;20139;-85
2023/08/25 04:47:57;;;;;;;19.75;14.70;;;18.70;99.90;;;;;;5089576;27;20428;-85
2023/08/25 04:50:24;;;;;;;16.88;12.50;;;18.70;99.90;;;;;;5073190;27;20067;-87
2023/08/25 04:52:50;;;;;;;14.77;12.20;;;19.30;99.90;;;;;;5086077;28;20401;-87
2023/08/25 04:55:16;;;;;;;14.55;12.23;;;18.70;99.90;;;;;;5082913;27;20106;-86
2023/08/25 04:57:42;;;;;;;15.70;11.93;;;18.70;99.90;;;;;;5086050;27;20055;-85
2023/08/25 05:00:09;;;;;;;15.68;12.13;;;18.70;99.90;;;;;;5087195;27;20140;-86
2023/08/25 05:02:34;;;;;;;14.15;11.52;;;18.60;99.90;;;;;;5073313;27;20039;-86
2023/08/25 05:05:04;;;;;;;15.93;10.30;;;18.70;99.90;;;;;;5090098;28;20039;-87
2023/08/25 05:07:30;;;;;;;13.07;9.82;;;18.70;99.90;;;;;;5089162;28;20110;-89
2023/08/25 05:09:56;;;;;;;16.02;10.38;;;18.60;99.90;;;;;;5105720;27;20130;-86
2023/08/25 05:12:22;;;;;;;12.68;9.60;;;18.70;99.90;;;;;;5092586;28;20078;-86
2023/08/25 05:14:49;;;;;;;15.70;11.05;;;18.60;99.90;;;;;;5072242;28;20048;-85
2023/08/25 05:17:17;;;;;;;18.00;10.85;;;18.70;99.90;;;;;;5074886;28;20156;-85
2023/08/25 05:19:42;;;;;;;15.02;11.02;;;18.60;99.90;;;;;;5091316;28;20054;-86
2023/08/25 05:22:08;;;;;;;13.27;10.32;;;18.70;99.90;;;;;;5088548;28;20302;-85
2023/08/25 05:24:34;;;;;;;16.05;10.32;;;19.10;99.90;;;;;;5090325;28;20040;-86
2023/08/25 05:27:00;;;;;;;15.48;11.50;;;18.70;99.90;;;;;;5074472;28;20536;-90
2023/08/25 05:29:27;;;;;;;14.98;11.27;;;18.70;99.90;;;;;;5073594;28;20433;-85
2023/08/25 05:31:54;;;;;;;15.25;10.82;;;18.70;99.90;;;;;;5099674;28;20122;-86
2023/08/25 05:34:20;;;;;;;13.48;10.38;;;18.70;99.90;;;;;;5085813;28;20048;-84
2023/08/25 05:36:46;;;;;;;13.65;9.85;;;18.70;99.90;;;;;;5074800;28;20049;-84
2023/08/25 05:39:13;;;;;;;13.70;10.05;;;18.70;99.90;;;;;;5065012;28;20112;-87
2023/08/25 05:41:39;;;;;;;11.48;9.70;;;18.70;99.90;;;;;;5083636;28;20039;-84
2023/08/25 05:44:05;;;;;;;13.57;10.40;;;18.70;99.90;;;;;;5105392;27;20078;-77
2023/08/25 05:46:31;;;;;;;17.77;10.82;;;18.70;99.90;;;;;;5114138;27;20042;-93
2023/08/25 05:48:57;;;;;;;21.05;13.63;;;18.70;99.90;;;;;;5087949;28;20134;-85
2023/08/25 05:51:26;;;;;;;21.13;14.98;;;18.70;99.90;;;;;;5085194;27;20120;-84
2023/08/25 05:53:52;;;;;;;22.40;17.13;;;18.70;99.90;;;;;;5094186;27;20649;-86
2023/08/25 05:56:18;;;;;;;25.35;16.33;;;18.80;99.90;;;;;;5094367;27;20040;-87
2023/08/25 05:58:44;;;;;;;19.83;16.50;;;18.80;99.90;;;;;;5077636;27;20039;-84
2023/08/25 06:01:11;;;;;;;25.17;17.77;;;18.80;99.90;;;;;;5099130;27;20414;-85
2023/08/25 06:03:38;;;;;;;22.65;16.50;;;18.80;99.90;;;;;;5092997;27;20055;-88
2023/08/25 06:06:04;;;;;;;24.35;18.20;;;18.80;99.90;;;;;;5092452;27;20183;-84
2023/08/25 06:08:30;;;;;;;22.92;17.85;;;18.80;99.90;;;;;;5088493;27;20158;-84
2023/08/25 06:10:57;;;;;;;25.20;17.63;;;18.90;99.90;;;;;;5108279;27;20088;-87
2023/08/25 06:13:23;;;;;;;21.33;16.45;;;18.80;99.90;;;;;;5103149;27;20549;-84
2023/08/25 06:15:49;;;;;;;20.67;17.33;;;18.90;99.90;;;;;;5087617;27;20035;-86
2023/08/25 06:18:15;;;;;;;22.67;17.05;;;18.90;99.90;;;;;;5072610;27;20051;-87
2023/08/25 06:20:42;;;;;;;25.70;18.38;;;18.90;99.90;;;;;;5092492;27;20043;-87
2023/08/25 06:23:08;;;;;;;28.63;18.52;;;18.90;99.90;;;;;;5088715;27;20520;-85
2023/08/25 06:25:36;;;;;;;26.60;18.60;;;19.00;99.90;;;;;;5087766;27;20492;-81
2023/08/25 06:28:17;;;;;;;22.10;17.30;;;19.00;99.90;;;;;;5093420;27;20503;-81
2023/08/25 06:30:43;;;;;;;30.83;20.35;;;19.00;99.90;;;;;;5094752;27;20074;-81
2023/08/25 06:33:10;;;;;;;26.55;20.25;;;19.10;99.90;;;;;;5102731;27;20132;-81
2023/08/25 06:35:40;;;;;;;28.73;18.40;;;19.10;99.90;;;;;;5086252;27;20043;-81
2023/08/25 06:38:06;;;;;;;26.98;19.67;;;19.10;99.90;;;;;;5102160;27;20043;-81
2023/08/25 06:40:36;;;;;;;34.65;20.77;;;19.10;99.90;;;;;;5088227;27;20402;-82
2023/08/25 06:43:11;;;;;;;32.70;21.90;;;19.20;99.90;;;;;;5100834;27;20043;-80
2023/08/25 06:45:37;;;;;;;32.25;22.70;;;19.30;99.90;;;;;;5107623;27;20039;-81
2023/08/25 06:48:04;;;;;;;31.90;23.10;;;19.10;99.90;;;;;;5102546;27;20063;-85
2023/08/25 06:50:30;;;;;;;32.05;21.83;;;19.30;99.90;;;;;;5078494;27;20062;-83
2023/08/25 06:52:59;;;;;;;28.85;21.92;;;19.40;99.90;;;;;;5091426;27;20055;-83
2023/08/25 06:55:25;;;;;;;30.58;20.90;;;19.40;99.90;;;;;;5102450;27;20047;-80
2023/08/25 06:57:51;;;;;;;38.72;23.38;;;19.50;99.90;;;;;;5089628;27;20425;-85
2023/08/25 07:00:18;;;;;;;37.25;23.77;;;19.60;99.90;;;;;;5096209;27;20563;-81
2023/08/25 07:02:44;;;;;;;38.95;23.17;;;19.70;99.90;;;;;;5105337;27;20047;-82
2023/08/25 07:05:15;;;;;;;35.58;22.52;;;19.80;99.90;;;;;;5076396;27;20136;-84
2023/08/25 07:07:42;;;;;;;32.72;21.42;;;19.90;99.90;;;;;;5072819;27;20035;-84
2023/08/25 07:10:09;;;;;;;31.55;21.33;;;20.00;99.90;;;;;;5090108;27;20162;-84
2023/08/25 07:12:35;;;;;;;32.47;19.40;;;20.10;99.90;;;;;;5092200;27;20043;-81
2023/08/25 07:15:01;;;;;;;32.25;19.40;;;20.20;99.90;;;;;;5117443;27;20051;-82
2023/08/25 07:17:26;;;;;;;29.60;19.33;;;20.20;99.90;;;;;;5097340;27;20039;-82
2023/08/25 07:19:53;;;;;;;29.30;18.30;;;20.30;99.90;;;;;;5099986;27;20043;-81
2023/08/25 07:22:20;;;;;;;29.58;19.05;;;20.30;99.90;;;;;;5098608;27;20126;-80
2023/08/25 07:24:47;;;;;;;24.52;16.45;;;20.40;99.90;;;;;;5075891;27;20322;-83
2023/08/25 07:27:12;;;;;;;27.35;18.05;;;20.50;99.90;;;;;;5071566;27;20047;-82
2023/08/25 07:29:38;;;;;;;28.45;18.42;;;20.60;99.90;;;;;;5101119;27;20054;-82
2023/08/25 07:32:05;;;;;;;26.08;18.00;;;20.60;99.90;;;;;;5102662;27;20055;-80
2023/08/25 07:34:31;;;;;;;30.27;18.92;;;20.60;99.90;;;;;;5100083;27;20074;-80
2023/08/25 07:36:56;;;;;;;27.73;17.77;;;20.60;99.90;;;;;;5088106;27;20502;-85
2023/08/25 07:39:22;;;;;;;26.80;17.17;;;20.50;99.90;;;;;;5081296;27;20102;-79
2023/08/25 07:41:54;;;;;;;28.35;17.73;;;20.80;99.90;;;;;;5089036;27;20047;-80
2023/08/25 07:44:19;;;;;;;27.52;18.15;;;21.00;99.90;;;;;;5117053;27;20047;-82
2023/08/25 07:46:45;;;;;;;26.48;18.48;;;21.20;99.90;;;;;;5098439;27;20047;-87
2023/08/25 07:49:11;;;;;;;25.50;17.15;;;21.30;99.90;;;;;;5081364;27;20074;-85
2023/08/25 07:51:37;;;;;;;28.80;17.83;;;21.40;99.90;;;;;;5072189;27;20087;-81
2023/08/25 07:54:04;;;;;;;22.67;15.35;;;21.50;99.90;;;;;;5111854;27;20056;-75
2023/08/25 07:56:29;;;;;;;25.33;16.83;;;21.40;99.90;;;;;;5078216;27;20641;-79
2023/08/25 07:58:57;;;;;;;26.42;16.90;;;21.60;99.90;;;;;;5096561;27;20124;-78
2023/08/25 08:01:22;;;;;;;24.35;16.55;;;21.60;99.90;;;;;;5080944;27;20108;-78
2023/08/25 08:03:50;;;;;;;20.73;13.93;;;21.60;99.90;;;;;;5098710;27;20050;-77
2023/08/25 08:06:16;;;;;;;26.05;16.30;;;21.70;99.90;;;;;;5066066;27;20101;-76
2023/08/25 08:08:43;;;;;;;24.95;17.17;;;21.70;99.90;;;;;;5082506;27;20051;-77
2023/08/25 08:11:09;;;;;;;23.95;16.73;;;21.60;99.90;;;;;;5098948;27;20055;-79
2023/08/25 08:13:35;;;;;;;22.70;16.08;;;21.50;99.90;;;;;;5096990;27;20100;-78
2023/08/25 08:16:01;;;;;;;23.23;14.85;;;21.50;99.90;;;;;;5096145;27;20142;-77
2023/08/25 08:18:27;;;;;;;22.67;14.30;;;21.50;99.90;;;;;;5094526;27;20046;-81
2023/08/25 08:20:55;;;;;;;21.83;13.98;;;21.40;99.90;;;;;;5083089;27;20048;-88
2023/08/25 08:23:20;;;;;;;23.50;14.90;;;21.10;99.90;;;;;;5049077;27;20168;-77
2023/08/25 08:25:49;;;;;;;25.65;15.63;;;21.50;99.90;;;;;;5094680;27;20557;-77
2023/08/25 08:28:15;;;;;;;26.95;16.67;;;21.50;99.90;;;;;;5083896;27;20050;-76
2023/08/25 08:30:43;;;;;;;27.17;14.68;;;21.60;99.90;;;;;;5088808;27;20047;-83
2023/08/25 08:33:09;;;;;;;25.58;14.65;;;21.70;99.90;;;;;;5092915;27;20362;-75
2023/08/25 08:35:37;;;;;;;26.60;16.30;;;21.80;99.90;;;;;;5093459;27;20077;-84
2023/08/25 08:38:03;;;;;;;22.38;13.25;;;21.80;99.90;;;;;;5076434;27;20039;-86
2023/08/25 08:40:31;;;;;;;20.40;13.80;;;21.80;99.90;;;;;;5092751;27;20043;-81
2023/08/25 08:43:03;;;;;;;23.58;15.07;;;21.80;99.90;;;;;;5107947;27;20057;-86
2023/08/25 08:45:34;;;;;;;23.90;13.85;;;21.90;99.90;;;;;;5094697;27;20050;-78
2023/08/25 08:48:04;;;;;;;23.35;13.60;;;22.00;99.90;;;;;;5092597;27;20092;-84
2023/08/25 08:50:35;;;;;;;21.05;12.25;;;22.10;99.90;;;;;;5057465;27;20057;-90
2023/08/25 08:53:04;;;;;;;23.35;13.98;;;22.30;99.90;;;;;;5076611;27;20131;-80
2023/08/25 08:55:32;;;;;;;17.85;12.18;;;22.40;99.90;;;;;;5092585;27;20043;-79
2023/08/25 08:57:58;;;;;;;19.88;14.38;;;22.60;99.90;;;;;;5092799;27;20047;-87
2023/08/25 09:00:24;;;;;;;21.88;13.90;;;22.60;99.70;;;;;;5078140;27;20468;-77
2023/08/25 09:02:53;;;;;;;20.38;12.70;;;22.80;98.90;;;;;;5090966;27;20104;-76
2023/08/25 09:05:27;;;;;;;18.25;12.73;;;22.80;98.30;;;;;;5089944;27;20134;-76
2023/08/25 09:08:06;;;;;;;19.92;12.57;;;22.80;97.90;;;;;;5094120;27;20058;-77
2023/08/25 09:10:32;;;;;;;16.35;10.10;;;22.90;97.90;;;;;;5091886;27;20055;-84
2023/08/25 09:12:58;;;;;;;19.45;12.02;;;22.80;97.70;;;;;;5081697;27;20122;-85
2023/08/25 09:15:30;;;;;;;17.90;12.45;;;23.00;97.60;;;;;;5109002;27;22340;-83
2023/08/25 09:18:09;;;;;;;18.27;10.90;;;23.00;96.90;;;;;;5080965;28;20031;-85
2023/08/25 09:20:40;;;;;;;15.75;11.15;;;23.10;96.50;;;;;;5068524;27;20031;-83
2023/08/25 09:23:08;;;;;;;17.95;11.35;;;23.00;96.60;;;;;;5090937;27;20043;-86
2023/08/25 09:25:34;;;;;;;22.85;12.18;;;23.00;96.60;;;;;;5092228;27;20039;-85
2023/08/25 09:28:04;;;;;;;14.18;9.80;;;23.00;96.60;;;;;;5082801;27;20611;-83
2023/08/25 09:30:41;;;;;;;19.20;10.55;;;23.00;96.50;;;;;;5085063;27;20046;-84
2023/08/25 09:33:13;;;;;;;16.67;10.05;;;22.90;96.20;;;;;;5064763;27;20120;-82
2023/08/25 09:35:40;;;;;;;15.52;10.85;;;22.90;96.60;;;;;;5097858;27;20211;-83
2023/08/25 09:38:07;;;;;;;17.88;11.57;;;22.90;96.50;;;;;;5082348;27;20040;-82
2023/08/25 09:40:38;;;;;;;14.95;10.05;;;22.90;96.20;;;;;;5096039;27;20045;-83
2023/08/25 09:43:04;;;;;;;17.38;10.77;;;22.90;96.00;;;;;;5096837;27;20505;-79
2023/08/25 09:45:32;;;;;;;15.85;10.05;;;22.90;95.80;;;;;;5100924;27;20109;-78
2023/08/25 09:48:12;;;;;;;16.50;9.70;;;23.00;95.70;;;;;;5078943;27;20093;-76
2023/08/25 09:50:38;;;;;;;15.18;9.43;;;23.00;95.10;;;;;;5093967;27;20609;-76
2023/08/25 09:53:09;;;;;;;12.55;8.38;;;23.00;95.20;;;;;;5093501;27;20047;-76
2023/08/25 09:55:36;;;;;;;14.30;9.50;;;23.00;95.00;;;;;;5093236;27;20050;-74
2023/08/25 09:58:09;;;;;;;10.70;8.00;;;23.10;95.30;;;;;;5065671;27;20054;-75
2023/08/25 10:00:39;;;;;;;18.88;9.02;;;23.20;95.20;;;;;;5096857;27;20513;-75
2023/08/25 10:03:10;;;;;;;12.85;8.32;;;23.10;94.70;;;;;;5078862;27;20049;-74
2023/08/25 10:05:42;;;;;;;12.25;8.23;;;23.20;94.50;;;;;;5079120;27;20762;-74
2023/08/25 10:08:09;;;;;;;12.02;7.50;;;23.10;93.90;;;;;;5095534;27;20107;-74
2023/08/25 10:10:38;;;;;;;12.57;6.90;;;23.10;93.90;;;;;;5096114;27;20055;-74
2023/08/25 10:13:05;;;;;;;11.27;6.72;;;23.00;93.60;;;;;;5095151;27;20883;-74
2023/08/25 10:15:33;;;;;;;8.93;5.53;;;23.10;93.50;;;;;;5100054;27;20136;-74
2023/08/25 10:18:06;;;;;;;10.38;6.55;;;23.20;93.10;;;;;;5097970;27;20114;-75
2023/08/25 10:20:35;;;;;;;9.07;6.20;;;23.20;92.50;;;;;;5103997;27;20494;-76
2023/08/25 10:23:04;;;;;;;9.77;5.30;;;23.30;92.30;;;;;;5083388;27;20036;-76
2023/08/25 10:25:31;;;;;;;8.82;5.88;;;23.30;92.40;;;;;;5096670;27;20074;-75
2023/08/25 10:28:02;;;;;;;7.60;5.28;;;23.30;92.30;;;;;;5096128;27;20118;-75
2023/08/25 10:30:29;;;;;;;8.35;6.15;;;23.40;92.00;;;;;;5088455;27;20039;-75
2023/08/25 10:32:59;;;;;;;8.77;6.65;;;23.40;91.70;;;;;;5100180;27;20080;-76
2023/08/25 10:35:43;;;;;;;8.43;5.32;;;23.50;91.00;;;;;;5088419;27;20035;-75
2023/08/25 10:38:18;;;;;;;11.25;5.80;;;23.50;90.20;;;;;;5100863;27;20047;-75
2023/08/25 10:40:50;;;;;;;9.48;5.72;;;23.80;91.30;;;;;;5095850;27;20047;-76
2023/08/25 10:43:32;;;;;;;9.52;6.85;;;24.10;90.70;;;;;;5099426;27;20048;-77
2023/08/25 10:46:01;;;;;;;6.55;5.00;;;24.40;88.40;;;;;;5099473;27;20055;-75
2023/08/25 10:48:27;;;;;;;8.90;6.10;;;24.90;87.00;;;;;;5085394;27;20401;-75
2023/08/25 10:51:17;;;;;;;6.68;4.50;;;25.20;82.50;;;;;;5082497;27;20394;-77
2023/08/25 10:53:50;;;;;;;8.45;5.47;;;25.50;76.20;;;;;;5099599;27;20055;-75
2023/08/25 10:56:22;;;;;;;8.93;5.60;;;25.60;74.60;;;;;;5098348;27;20043;-75
2023/08/25 10:59:04;;;;;;;8.32;5.60;;;25.60;72.20;;;;;;5097195;27;20220;-75
2023/08/25 11:01:36;;;;;;;8.10;5.28;;;25.70;69.40;;;;;;5098952;27;21162;-75
2023/08/25 11:04:06;;;;;;;7.57;5.47;;;25.70;70.40;;;;;;5096871;27;20043;-75
2023/08/25 11:06:49;;;;;;;9.15;5.00;;;25.70;70.80;;;;;;5099570;27;20055;-76
2023/08/25 11:09:18;;;;;;;8.55;5.10;;;25.70;64.90;;;;;;5080767;27;20099;-75
2023/08/25 11:11:56;;;;;;;7.35;5.00;;;25.80;70.10;;;;;;5097448;27;20040;-75
2023/08/25 11:14:36;;;;;;;9.02;6.10;;;25.90;66.60;;;;;;5086901;27;20071;-77
2023/08/25 11:17:07;;;;;;;6.57;5.78;;;25.90;64.20;;;;;;5073520;27;20082;-77
2023/08/25 11:19:42;;;;;;;8.10;5.28;;;25.90;60.70;;;;;;5061480;28;20056;-78
2023/08/25 11:22:12;;;;;;;9.52;5.18;;;25.90;62.60;;;;;;5030664;28;20135;-84
2023/08/25 11:24:38;;;;;;;9.63;6.28;;;25.90;65.00;;;;;;5062243;28;20040;-78
2023/08/25 11:27:24;;;;;;;7.72;5.15;;;26.00;63.80;;;;;;5074909;28;20779;-76
2023/08/25 11:29:50;;;;;;;7.10;5.05;;;26.00;64.20;;;;;;5068513;27;20052;-77
2023/08/25 11:32:16;;;;;;;10.63;5.45;;;26.10;63.70;;;;;;5086060;27;20080;-76
2023/08/25 11:34:47;;;;;;;8.52;6.25;;;26.30;62.20;;;;;;5047301;28;20729;-77
2023/08/25 11:37:16;;;;;;;10.43;5.93;;;26.60;58.50;;;;;;5090959;27;20054;-77
2023/08/25 11:39:45;;;;;;;8.77;6.38;;;26.50;54.60;;;;;;5062958;28;20051;-76
2023/08/25 11:42:12;;;;;;;13.65;5.72;;;26.40;53.60;;;;;;5086761;28;20373;-76
2023/08/25 11:44:41;;;;;;;9.43;6.72;;;26.50;55.40;;;;;;5048130;28;20082;-75
2023/08/25 11:47:08;;;;;;;9.95;6.65;;;26.50;53.40;;;;;;5073207;27;21000;-77
2023/08/25 11:49:34;;;;;;;10.48;6.07;;;26.50;53.40;;;;;;5066554;27;20146;-77
2023/08/25 11:52:00;;;;;;;8.95;5.88;;;26.40;52.30;;;;;;5063520;27;20109;-76
2023/08/25 11:54:26;;;;;;;11.10;6.38;;;26.10;52.80;;;;;;5070143;27;20063;-76
2023/08/25 11:56:53;;;;;;;9.63;6.10;;;25.90;55.00;;;;;;5095184;27;20046;-76
2023/08/25 11:59:19;;;;;;;9.20;5.65;;;25.80;55.10;;;;;;5097171;27;20490;-77
2023/08/25 12:01:58;;;;;;;11.90;6.60;;;25.70;55.30;;;;;;5088142;27;20059;-75
2023/08/25 12:04:27;;;;;;;9.13;5.90;;;25.60;55.00;;;;;;5095095;27;20039;-76
2023/08/25 12:06:54;;;;;;;8.00;5.43;;;25.50;57.10;;;;;;5114442;27;20044;-77
2023/08/25 12:09:24;;;;;;;11.05;5.55;;;25.50;57.80;;;;;;5106698;27;20035;-76
2023/08/25 12:12:02;;;;;;;7.40;5.63;;;25.50;59.60;;;;;;5054255;27;20101;-77
2023/08/25 12:14:30;;;;;;;7.95;5.88;;;25.40;56.50;;;;;;5098801;27;20123;-76
2023/08/25 12:16:57;;;;;;;8.75;5.40;;;25.30;57.70;;;;;;5102056;27;20035;-76
2023/08/25 12:19:24;;;;;;;7.45;4.60;;;25.00;58.80;;;;;;5095065;27;20073;-76
2023/08/25 12:21:52;;;;;;;9.90;5.53;;;24.90;61.50;;;;;;5084224;27;20486;-76
2023/08/25 12:24:17;;;;;;;8.52;5.72;;;24.80;62.60;;;;;;5098164;27;20045;-76
2023/08/25 12:26:44;;;;;;;5.55;4.93;;;24.80;62.50;;;;;;5097940;27;20054;-76
2023/08/25 12:29:10;;;;;;;6.38;4.47;;;24.80;61.40;;;;;;5086206;27;20050;-76
2023/08/25 12:31:36;;;;;;;6.57;4.70;;;24.80;62.70;;;;;;5081296;27;20070;-75
2023/08/25 12:34:11;;;;;;;9.50;4.45;;;24.80;61.40;;;;;;5093732;27;20039;-75
2023/08/25 12:36:37;;;;;;;7.35;5.40;;;24.80;60.40;;;;;;5076350;27;20059;-76